Time;durP1;ratioP1;P1;durP2;ratioP2;P2;SDS_P1;SDS_P2;PMS_P1;PMS_P2;Temp;Humidity;BMP_temperature;BMP_pressure;BME280_temperature;BME280_humidity;BME280_pressure;Samples;Min_cycle;Max_cycle;Signal;HPM_P1;HPM_P2
2021/08/12 00:01:22;;;;;;;7.03;4.53;;;589.40;2432.00;;;;;;5030386;28;20049;-75
2021/08/12 00:03:49;;;;;;;6.70;4.30;;;589.40;2432.00;;;;;;5030814;28;20029;-75
2021/08/12 00:06:15;;;;;;;6.88;4.28;;;589.30;2432.00;;;;;;5034972;28;20029;-75
2021/08/12 00:08:41;;;;;;;7.40;4.53;;;589.30;2432.00;;;;;;5035082;28;20163;-75
2021/08/12 00:11:07;;;;;;;9.32;4.35;;;589.30;2432.00;;;;;;5022229;28;20156;-75
2021/08/12 00:13:34;;;;;;;9.18;4.57;;;589.30;2432.00;;;;;;5041105;28;20029;-75
2021/08/12 00:16:00;;;;;;;9.07;4.45;;;589.30;2432.00;;;;;;5033899;28;20021;-76
2021/08/12 00:18:26;;;;;;;7.32;4.70;;;589.30;2432.00;;;;;;5028588;28;20032;-75
2021/08/12 00:20:52;;;;;;;4.88;3.60;;;589.30;2432.00;;;;;;5040385;28;20035;-75
2021/08/12 00:23:18;;;;;;;7.25;3.88;;;589.30;2432.00;;;;;;5032571;28;20025;-75
2021/08/12 00:25:45;;;;;;;6.15;4.43;;;589.30;2432.00;;;;;;5040430;28;20025;-75
2021/08/12 00:28:12;;;;;;;9.57;4.07;;;589.30;2432.00;;;;;;5035390;28;20812;-75
2021/08/12 00:30:38;;;;;;;13.57;5.20;;;589.40;2432.00;;;;;;5040823;28;20072;-74
2021/08/12 00:33:04;;;;;;;7.93;4.68;;;589.40;2432.00;;;;;;5029697;28;20050;-74
2021/08/12 00:35:29;;;;;;;7.38;4.60;;;589.40;2432.00;;;;;;5031603;28;20034;-74
2021/08/12 00:37:55;;;;;;;7.95;4.53;;;589.40;2432.00;;;;;;5037059;28;20021;-75
2021/08/12 00:40:22;;;;;;;9.23;4.53;;;589.40;2432.00;;;;;;5035182;28;20419;-75
2021/08/12 00:42:47;;;;;;;6.53;5.18;;;589.40;2432.00;;;;;;5030853;28;20033;-75
2021/08/12 00:45:13;;;;;;;7.78;4.18;;;589.40;2432.00;;;;;;5032180;28;20431;-75
2021/08/12 00:47:39;;;;;;;6.72;4.05;;;589.30;2432.00;;;;;;5035373;28;20029;-76
2021/08/12 00:50:05;;;;;;;7.03;4.18;;;589.30;2432.00;;;;;;5043898;28;20104;-75
2021/08/12 00:52:31;;;;;;;5.97;4.05;;;589.30;2432.00;;;;;;5038717;28;20060;-76
2021/08/12 00:54:58;;;;;;;6.55;4.47;;;589.30;2432.00;;;;;;5034349;28;20109;-75
2021/08/12 00:57:24;;;;;;;7.97;4.72;;;589.30;2432.00;;;;;;5029804;28;20021;-75
2021/08/12 00:59:51;;;;;;;6.30;4.10;;;589.30;2432.00;;;;;;5027934;28;20079;-76
2021/08/12 01:02:16;;;;;;;5.53;4.07;;;589.30;2432.00;;;;;;5041729;28;20401;-75
2021/08/12 01:04:49;;;;;;;7.40;4.40;;;589.20;2432.00;;;;;;5026633;28;20044;-76
2021/08/12 01:07:26;;;;;;;7.40;4.22;;;589.20;2432.00;;;;;;5040406;28;20045;-75
2021/08/12 01:10:12;;;;;;;7.60;4.72;;;589.20;2432.00;;;;;;5046620;28;20025;-76
2021/08/12 01:13:04;;;;;;;7.57;4.90;;;589.20;2432.00;;;;;;5033528;28;20041;-76
2021/08/12 01:15:39;;;;;;;6.18;4.75;;;589.10;2432.00;;;;;;5042820;28;20029;-76
2021/08/12 01:18:13;;;;;;;7.20;4.00;;;589.10;2432.00;;;;;;5040434;28;20025;-76
2021/08/12 01:20:50;;;;;;;7.57;4.55;;;589.10;2432.00;;;;;;5047858;28;20029;-76
2021/08/12 01:23:19;;;;;;;9.80;4.78;;;589.00;2432.00;;;;;;5024266;28;20056;-75
2021/08/12 01:25:48;;;;;;;6.63;4.50;;;589.00;2432.00;;;;;;5035617;28;20091;-76
2021/08/12 01:28:18;;;;;;;7.35;4.82;;;589.00;2432.00;;;;;;5029221;28;20103;-75
2021/08/12 01:31:16;;;;;;;8.23;4.40;;;588.90;2432.00;;;;;;5028970;28;20028;-75
2021/08/12 01:34:03;;;;;;;7.78;5.15;;;588.90;2432.00;;;;;;5031209;28;20045;-75
2021/08/12 01:36:30;;;;;;;9.40;5.05;;;588.90;2432.00;;;;;;5033573;28;20028;-76
2021/08/12 01:38:58;;;;;;;7.05;4.78;;;588.90;2432.00;;;;;;5033901;28;20013;-76
2021/08/12 01:41:27;;;;;;;9.25;4.78;;;588.80;2432.00;;;;;;5036014;28;20025;-75
2021/08/12 01:43:53;;;;;;;7.50;4.70;;;588.80;2432.00;;;;;;5037928;28;20025;-75
2021/08/12 01:46:22;;;;;;;6.60;4.53;;;588.80;2432.00;;;;;;5035110;28;20029;-75
2021/08/12 01:48:48;;;;;;;6.60;4.25;;;588.80;2432.00;;;;;;5040162;28;20112;-75
2021/08/12 01:51:15;;;;;;;5.53;4.80;;;564.10;2432.00;;;;;;5032584;28;20026;-75
2021/08/12 01:53:40;;;;;;;7.75;5.85;;;564.00;2432.00;;;;;;5032378;28;20067;-75
2021/08/12 01:56:08;;;;;;;9.23;5.25;;;563.90;2432.00;;;;;;5031575;28;20033;-76
2021/08/12 01:58:36;;;;;;;8.48;5.75;;;564.00;2432.00;;;;;;5032122;28;20127;-75
2021/08/12 02:01:02;;;;;;;8.05;5.40;;;564.00;2432.00;;;;;;5033444;28;20025;-75
2021/08/12 02:03:29;;;;;;;18.42;7.05;;;564.00;2432.00;;;;;;5036288;28;20549;-75
2021/08/12 02:05:57;;;;;;;9.50;6.22;;;564.00;2432.00;;;;;;5032693;28;20083;-75
2021/08/12 02:08:24;;;;;;;8.85;5.78;;;564.00;2432.00;;;;;;5029263;28;20034;-75
2021/08/12 02:10:50;;;;;;;11.10;6.25;;;564.00;2432.00;;;;;;5021879;28;20026;-75
2021/08/12 02:13:16;;;;;;;8.38;5.43;;;564.00;2432.00;;;;;;5033621;28;20025;-75
2021/08/12 02:15:43;;;;;;;7.57;5.25;;;564.10;2432.00;;;;;;5057500;28;20498;-75
2021/08/12 02:18:09;;;;;;;8.73;6.22;;;564.00;2432.00;;;;;;5042678;28;20108;-75
2021/08/12 02:20:39;;;;;;;9.68;5.40;;;563.90;2432.00;;;;;;5046079;28;20095;-75
2021/08/12 02:23:10;;;;;;;9.05;5.28;;;563.80;2432.00;;;;;;5038654;28;20425;-75
2021/08/12 02:25:50;;;;;;;9.88;4.95;;;563.80;2432.00;;;;;;5041622;28;20107;-74
2021/08/12 02:28:17;;;;;;;12.00;4.68;;;563.80;2432.00;;;;;;5032304;28;20507;-74
2021/08/12 02:30:45;;;;;;;9.40;5.28;;;563.70;2432.00;;;;;;5040648;28;20030;-75
2021/08/12 02:33:15;;;;;;;7.30;5.10;;;563.70;2432.00;;;;;;5035398;28;20470;-75
2021/08/12 02:35:42;;;;;;;7.78;4.60;;;563.70;2432.00;;;;;;5042205;28;20032;-75
2021/08/12 02:38:11;;;;;;;6.72;4.25;;;563.70;2432.00;;;;;;5040832;28;20022;-75
2021/08/12 02:40:39;;;;;;;6.50;4.70;;;563.70;2432.00;;;;;;5029777;28;20017;-75
2021/08/12 02:43:05;;;;;;;7.22;4.72;;;563.70;2432.00;;;;;;5043501;28;20025;-75
2021/08/12 02:45:33;;;;;;;7.65;4.70;;;563.70;2432.00;;;;;;5047178;28;20392;-76
2021/08/12 02:48:00;;;;;;;14.55;5.05;;;563.70;2432.00;;;;;;5035141;28;20440;-75
2021/08/12 02:50:27;;;;;;;6.47;4.50;;;563.70;2432.00;;;;;;5031321;28;20064;-75
2021/08/12 02:52:54;;;;;;;7.95;4.97;;;563.70;2432.00;;;;;;5032696;28;20036;-75
2021/08/12 02:55:21;;;;;;;7.15;5.20;;;563.90;2432.00;;;;;;5031327;28;20036;-75
2021/08/12 02:57:48;;;;;;;6.47;4.75;;;563.70;2432.00;;;;;;5031774;28;20049;-76
2021/08/12 03:00:14;;;;;;;7.13;4.50;;;563.70;2432.00;;;;;;5048238;28;20029;-76
2021/08/12 03:02:47;;;;;;;8.85;4.75;;;563.80;2432.00;;;;;;5031689;28;20071;-75
2021/08/12 03:05:14;;;;;;;8.27;5.03;;;563.80;2432.00;;;;;;5032877;28;20377;-75
2021/08/12 03:07:44;;;;;;;8.10;4.45;;;563.70;2432.00;;;;;;5030262;28;20022;-74
2021/08/12 03:10:17;;;;;;;9.25;4.30;;;563.70;2432.00;;;;;;5031648;28;20026;-75
2021/08/12 03:12:45;;;;;;;7.32;5.07;;;563.60;2432.00;;;;;;5031463;28;20029;-75
2021/08/12 03:15:12;;;;;;;13.02;4.93;;;563.60;2432.00;;;;;;5034316;28;20164;-75
2021/08/12 03:17:38;;;;;;;7.28;4.30;;;563.60;2432.00;;;;;;5023207;28;20143;-75
2021/08/12 03:20:06;;;;;;;8.52;5.03;;;563.60;2432.00;;;;;;5034291;28;20029;-75
2021/08/12 03:22:32;;;;;;;21.98;5.45;;;563.60;2432.00;;;;;;5050840;28;20102;-75
2021/08/12 03:24:58;;;;;;;6.22;4.82;;;563.60;2432.00;;;;;;5024906;28;20025;-75
2021/08/12 03:27:24;;;;;;;9.95;5.35;;;563.60;2432.00;;;;;;5034707;28;20037;-74
2021/08/12 03:29:51;;;;;;;8.50;4.45;;;563.50;2432.00;;;;;;5025123;28;20028;-75
2021/08/12 03:32:20;;;;;;;6.80;4.70;;;563.50;2432.00;;;;;;5037140;28;20051;-75
2021/08/12 03:34:46;;;;;;;7.22;4.97;;;563.40;2432.00;;;;;;5043438;28;20080;-75
2021/08/12 03:37:13;;;;;;;8.90;5.53;;;563.30;2432.00;;;;;;5033969;28;20430;-75
2021/08/12 03:39:39;;;;;;;11.23;4.60;;;563.40;2432.00;;;;;;5047817;28;20012;-75
2021/08/12 03:42:04;;;;;;;9.85;4.72;;;563.50;2432.00;;;;;;5039141;28;20037;-75
2021/08/12 03:44:30;;;;;;;6.55;4.53;;;563.60;2432.00;;;;;;5033592;28;20022;-75
2021/08/12 03:46:56;;;;;;;9.48;5.13;;;563.60;2432.00;;;;;;5033999;28;20464;-75
2021/08/12 03:49:21;;;;;;;10.30;5.80;;;563.50;2432.00;;;;;;5028208;28;20101;-75
2021/08/12 03:51:47;;;;;;;9.75;4.68;;;563.40;2432.00;;;;;;5024891;28;20082;-75
2021/08/12 03:54:13;;;;;;;9.18;4.95;;;563.50;2432.00;;;;;;5039705;28;20713;-75
2021/08/12 03:56:39;;;;;;;8.38;4.50;;;563.40;2432.00;;;;;;5033499;28;20018;-75
2021/08/12 03:59:05;;;;;;;7.40;4.90;;;563.50;2432.00;;;;;;5033671;28;20022;-75
2021/08/12 04:01:31;;;;;;;6.75;4.72;;;563.50;2432.00;;;;;;5040305;28;20021;-75
2021/08/12 04:03:58;;;;;;;9.45;5.45;;;563.30;2432.00;;;;;;5035050;28;20029;-76
2021/08/12 04:06:23;;;;;;;8.90;5.40;;;563.40;2432.00;;;;;;5034734;28;20034;-76
2021/08/12 04:08:49;;;;;;;9.38;5.70;;;563.50;2432.00;;;;;;5029493;28;20029;-76
2021/08/12 04:11:15;;;;;;;8.38;5.13;;;563.60;2432.00;;;;;;5038547;28;20047;-76
2021/08/12 04:13:41;;;;;;;8.77;5.18;;;563.60;2432.00;;;;;;5036445;28;20484;-77
2021/08/12 04:16:07;;;;;;;11.57;5.95;;;563.70;2432.00;;;;;;5038928;28;20041;-77
2021/08/12 04:18:33;;;;;;;8.85;5.22;;;563.70;2432.00;;;;;;5033757;28;20032;-76
2021/08/12 04:20:59;;;;;;;10.32;5.70;;;563.80;2432.00;;;;;;5043296;28;20017;-77
2021/08/12 04:23:24;;;;;;;12.68;6.05;;;563.90;2432.00;;;;;;5042863;28;20108;-77
2021/08/12 04:25:52;;;;;;;8.32;5.10;;;564.00;2432.00;;;;;;5031911;28;20022;-77
2021/08/12 04:28:18;;;;;;;9.02;5.38;;;564.10;2432.00;;;;;;5040874;28;20099;-77
2021/08/12 04:30:44;;;;;;;8.32;5.38;;;564.10;2432.00;;;;;;5043433;28;20048;-77
2021/08/12 04:33:10;;;;;;;19.38;6.05;;;588.80;2432.00;;;;;;4996271;28;1253485;-77
2021/08/12 04:35:36;;;;;;;8.27;5.07;;;588.90;2432.00;;;;;;5045574;28;20021;-77
2021/08/12 04:38:01;;;;;;;7.15;4.60;;;589.00;2432.00;;;;;;5030135;28;20030;-77
2021/08/12 04:40:27;;;;;;;6.70;4.88;;;589.20;2432.00;;;;;;5042455;28;20021;-77
2021/08/12 04:42:53;;;;;;;10.35;5.30;;;589.30;2432.00;;;;;;5025952;28;20083;-77
2021/08/12 04:45:20;;;;;;;14.40;5.60;;;589.30;2432.00;;;;;;5041666;28;20017;-76
2021/08/12 04:47:46;;;;;;;8.98;5.95;;;589.40;2432.00;;;;;;5032937;28;20029;-76
2021/08/12 04:50:12;;;;;;;7.43;5.15;;;589.40;2432.00;;;;;;5039772;28;20162;-76
2021/08/12 04:52:41;;;;;;;11.77;5.93;;;589.50;2432.00;;;;;;5035849;28;20080;-76
2021/08/12 04:55:11;;;;;;;9.07;6.28;;;589.60;2432.00;;;;;;5034708;28;20029;-76
2021/08/12 04:57:36;;;;;;;10.13;5.63;;;589.60;2432.00;;;;;;5035439;28;20022;-76
2021/08/12 05:00:04;;;;;;;9.25;6.28;;;614.40;2432.00;;;;;;5036375;28;20026;-76
2021/08/12 05:02:30;;;;;;;7.70;5.15;;;614.50;2432.00;;;;;;5044043;28;20381;-77
2021/08/12 05:04:55;;;;;;;12.55;5.63;;;614.50;2432.00;;;;;;5040419;28;20084;-77
2021/08/12 05:07:21;;;;;;;13.70;8.30;;;614.60;2432.00;;;;;;5033872;28;20427;-77
2021/08/12 05:09:47;;;;;;;12.40;8.75;;;614.60;2432.00;;;;;;5033366;28;20072;-77
2021/08/12 05:12:19;;;;;;;11.15;6.60;;;614.60;2432.00;;;;;;5033709;28;20080;-76
2021/08/12 05:14:45;;;;;;;11.35;8.85;;;614.90;2432.00;;;;;;5032260;28;20029;-77
2021/08/12 05:17:11;;;;;;;10.15;7.10;;;614.80;2432.00;;;;;;5033852;28;20018;-77
2021/08/12 05:19:36;;;;;;;14.43;7.75;;;615.00;2432.00;;;;;;5035551;28;20021;-77
2021/08/12 05:22:02;;;;;;;13.90;7.60;;;615.10;2432.00;;;;;;5032793;28;20385;-77
2021/08/12 05:24:28;;;;;;;14.05;8.52;;;615.20;2432.00;;;;;;5032715;28;20064;-77
2021/08/12 05:26:54;;;;;;;14.23;8.68;;;615.30;2432.00;;;;;;5040996;28;20052;-77
2021/08/12 05:29:19;;;;;;;10.52;7.65;;;640.00;2432.00;;;;;;5037054;28;20029;-79
2021/08/12 05:31:45;;;;;;;11.23;6.45;;;640.00;2432.00;;;;;;5044481;28;20037;-79
2021/08/12 05:34:11;;;;;;;12.23;7.13;;;640.20;2432.00;;;;;;5040822;28;20041;-79
2021/08/12 05:36:37;;;;;;;12.32;7.72;;;640.30;2432.00;;;;;;5049843;28;20048;-79
2021/08/12 05:39:03;;;;;;;9.82;7.43;;;640.40;2432.00;;;;;;5047835;28;20035;-79
2021/08/12 05:41:28;;;;;;;14.65;6.47;;;640.40;2432.00;;;;;;5037871;28;20075;-79
2021/08/12 05:43:54;;;;;;;12.27;7.22;;;640.50;2406.40;;;;;;5042720;28;20033;-82
2021/08/12 05:46:20;;;;;;;12.40;6.45;;;640.60;2406.40;;;;;;5036936;28;20504;-78
2021/08/12 05:48:45;;;;;;;10.90;6.45;;;640.70;2406.40;;;;;;5030809;28;20099;-77
2021/08/12 05:51:12;;;;;;;11.88;5.85;;;640.70;2406.40;;;;;;5033273;28;20029;-78
2021/08/12 05:53:38;;;;;;;10.02;7.32;;;640.90;2380.80;;;;;;5032298;28;20034;-78
2021/08/12 05:56:04;;;;;;;6.38;5.03;;;665.60;2406.40;;;;;;5028503;28;20090;-78
2021/08/12 05:58:33;;;;;;;9.82;5.65;;;665.70;2406.40;;;;;;5029452;28;20052;-77
2021/08/12 06:00:59;;;;;;;13.38;6.88;;;665.80;2406.40;;;;;;5031762;28;20017;-77
2021/08/12 06:03:24;;;;;;;7.60;6.03;;;665.90;2406.40;;;;;;5034220;28;20037;-77
2021/08/12 06:05:57;;;;;;;6.82;5.47;;;666.20;2380.80;;;;;;5026120;28;20037;-77
2021/08/12 06:08:23;;;;;;;9.38;5.50;;;666.40;2355.20;;;;;;5025670;28;20299;-77
2021/08/12 06:10:49;;;;;;;10.50;6.55;;;691.30;2355.20;;;;;;5031980;28;20030;-77
2021/08/12 06:13:15;;;;;;;7.30;5.93;;;691.20;2355.20;;;;;;5034210;28;20022;-77
2021/08/12 06:15:40;;;;;;;11.30;5.50;;;691.40;2355.20;;;;;;5035895;28;20380;-77
2021/08/12 06:18:11;;;;;;;11.95;6.40;;;691.30;2355.20;;;;;;5041736;28;20049;-78
2021/08/12 06:20:38;;;;;;;9.27;6.55;;;691.50;2355.20;;;;;;5038803;28;20029;-78
2021/08/12 06:23:07;;;;;;;10.70;6.28;;;691.50;2355.20;;;;;;5025897;28;20014;-77
2021/08/12 06:25:35;;;;;;;12.20;6.35;;;691.50;2355.20;;;;;;5024808;28;20038;-78
2021/08/12 06:28:01;;;;;;;7.63;5.90;;;691.90;2355.20;;;;;;5028415;28;20017;-77
2021/08/12 06:30:27;;;;;;;10.35;5.68;;;691.80;2355.20;;;;;;5041544;28;20029;-77
2021/08/12 06:32:52;;;;;;;10.73;6.25;;;692.10;2329.60;;;;;;5041716;28;20119;-77
2021/08/12 06:35:19;;;;;;;9.18;6.00;;;692.10;2329.60;;;;;;5042628;28;20041;-78
2021/08/12 06:37:47;;;;;;;9.98;6.80;;;716.90;2329.60;;;;;;5026849;28;20028;-77
2021/08/12 06:40:15;;;;;;;8.55;5.90;;;716.90;2329.60;;;;;;5036659;28;20083;-77
2021/08/12 06:42:41;;;;;;;12.40;5.65;;;717.10;2329.60;;;;;;5030144;28;20025;-77
2021/08/12 06:45:07;;;;;;;8.13;5.13;;;717.20;2329.60;;;;;;5031834;28;20051;-78
2021/08/12 06:47:35;;;;;;;9.55;6.78;;;717.30;2304.00;;;;;;5031690;28;20033;-77
2021/08/12 06:50:02;;;;;;;11.45;6.15;;;717.50;2278.40;;;;;;5031329;28;20037;-77
2021/08/12 06:52:27;;;;;;;8.25;5.80;;;742.60;2278.40;;;;;;5037304;28;20064;-78
2021/08/12 06:54:53;;;;;;;6.82;4.65;;;742.60;2278.40;;;;;;5038069;28;20061;-77
2021/08/12 06:57:19;;;;;;;8.20;6.78;;;742.60;2278.40;;;;;;5017606;28;20481;-78
2021/08/12 06:59:44;;;;;;;8.35;6.22;;;743.00;2227.20;;;;;;5034695;28;20030;-78
2021/08/12 07:02:10;;;;;;;9.90;6.18;;;743.20;2227.20;;;;;;5034040;28;20100;-78
2021/08/12 07:04:36;;;;;;;9.88;5.97;;;743.20;2201.60;;;;;;5022729;28;20037;-78
2021/08/12 07:07:02;;;;;;;9.57;5.93;;;743.20;2201.60;;;;;;5045982;28;20045;-78
2021/08/12 07:09:28;;;;;;;10.23;6.25;;;743.20;2201.60;;;;;;5047240;28;20405;-76
2021/08/12 07:11:53;;;;;;;13.00;8.85;;;768.10;2176.00;;;;;;5035648;28;20040;-77
2021/08/12 07:14:19;;;;;;;14.00;6.82;;;768.20;2176.00;;;;;;5030698;28;20032;-77
2021/08/12 07:16:45;;;;;;;8.55;6.25;;;768.30;2150.40;;;;;;5028462;28;20021;-78
2021/08/12 07:19:10;;;;;;;10.68;6.65;;;768.40;2150.40;;;;;;5035657;28;20068;-77
2021/08/12 07:21:40;;;;;;;8.93;6.25;;;768.60;2150.40;;;;;;5030947;28;20014;-77
2021/08/12 07:24:06;;;;;;;8.25;6.88;;;768.70;2124.80;;;;;;5042036;28;20059;-77
2021/08/12 07:26:32;;;;;;;15.18;5.97;;;793.60;2150.40;;;;;;5030441;28;20113;-78
2021/08/12 07:28:57;;;;;;;9.63;5.35;;;793.70;2124.80;;;;;;5045035;28;20029;-78
2021/08/12 07:31:23;;;;;;;8.77;5.47;;;793.60;2124.80;;;;;;5039329;28;20044;-77
2021/08/12 07:33:49;;;;;;;9.27;6.10;;;793.80;2099.20;;;;;;5037846;28;20167;-78
2021/08/12 07:36:15;;;;;;;11.00;6.38;;;768.90;2124.80;;;;;;5038793;28;20026;-78
2021/08/12 07:38:41;;;;;;;9.50;6.25;;;793.60;2124.80;;;;;;5029700;28;20040;-77
2021/08/12 07:41:07;;;;;;;7.57;5.68;;;793.80;2124.80;;;;;;5030563;28;20025;-78
2021/08/12 07:43:33;;;;;;;11.02;6.60;;;794.10;2099.20;;;;;;5029748;28;20085;-77
2021/08/12 07:45:59;;;;;;;9.32;5.65;;;794.30;2073.60;;;;;;5031103;28;20018;-78
2021/08/12 07:48:25;;;;;;;8.52;5.82;;;794.30;2073.60;;;;;;5029025;28;20036;-78
2021/08/12 07:50:51;;;;;;;12.65;5.68;;;819.30;2048.00;;;;;;5030053;28;20117;-78
2021/08/12 07:53:17;;;;;;;11.48;6.07;;;819.30;2022.40;;;;;;5033198;28;20065;-78
2021/08/12 07:55:43;;;;;;;9.30;5.97;;;819.20;2022.40;;;;;;5032200;28;20537;-78
2021/08/12 07:58:08;;;;;;;9.18;5.40;;;819.40;2022.40;;;;;;5031719;28;20021;-78
2021/08/12 08:00:34;;;;;;;8.98;5.95;;;819.50;1996.80;;;;;;5034904;28;20396;-77
2021/08/12 08:03:00;;;;;;;9.52;6.50;;;819.40;2022.40;;;;;;5034855;28;20025;-78
2021/08/12 08:05:26;;;;;;;9.05;6.20;;;819.60;1996.80;;;;;;5042613;28;20040;-77
2021/08/12 08:07:53;;;;;;;11.85;5.93;;;820.00;1971.20;;;;;;5035246;28;20036;-77
2021/08/12 08:10:22;;;;;;;9.43;5.50;;;845.00;1945.60;;;;;;5029652;28;20477;-77
2021/08/12 08:12:48;;;;;;;8.18;5.78;;;820.10;1920.00;;;;;;5031720;28;20061;-77
2021/08/12 08:15:16;;;;;;;7.22;5.32;;;819.90;1920.00;;;;;;5041022;28;20068;-77
2021/08/12 08:17:41;;;;;;;7.30;5.55;;;819.70;1945.60;;;;;;5045963;28;20025;-78
2021/08/12 08:20:10;;;;;;;8.77;5.32;;;819.90;1920.00;;;;;;5034694;28;20420;-78
2021/08/12 08:22:36;;;;;;;8.65;5.07;;;820.10;1894.40;;;;;;5031797;28;20357;-78
2021/08/12 08:25:02;;;;;;;7.68;5.10;;;845.10;1894.40;;;;;;5044842;28;20038;-78
2021/08/12 08:27:28;;;;;;;6.35;4.38;;;844.90;1868.80;;;;;;5033903;28;20191;-78
2021/08/12 08:29:54;;;;;;;8.55;5.30;;;820.10;1817.60;;;;;;5034433;28;20516;-78
2021/08/12 08:32:20;;;;;;;8.07;4.47;;;844.90;1843.20;;;;;;5042937;28;20082;-78
2021/08/12 08:34:46;;;;;;;12.30;5.72;;;844.90;1843.20;;;;;;5048294;28;20049;-78
2021/08/12 08:37:13;;;;;;;9.20;5.80;;;845.50;1792.00;;;;;;5044216;28;20499;-78
2021/08/12 08:39:39;;;;;;;6.70;5.13;;;845.50;1792.00;;;;;;5032427;28;20029;-78
2021/08/12 08:42:06;;;;;;;8.63;4.63;;;870.40;1766.40;;;;;;5029745;28;20057;-79
2021/08/12 08:44:34;;;;;;;7.30;4.55;;;845.40;1740.80;;;;;;5031394;28;20022;-79
2021/08/12 08:47:00;;;;;;;7.70;4.57;;;845.50;1740.80;;;;;;5035994;28;20435;-79
2021/08/12 08:49:31;;;;;;;8.48;5.95;;;870.40;1715.20;;;;;;5033946;28;20525;-78
2021/08/12 08:51:58;;;;;;;5.45;4.53;;;870.50;1689.60;;;;;;5041179;28;20030;-79
2021/08/12 08:54:25;;;;;;;8.20;4.70;;;870.90;1664.00;;;;;;5030541;28;20033;-79
2021/08/12 08:56:51;;;;;;;9.13;5.03;;;870.90;1638.40;;;;;;5055457;28;20464;-79
2021/08/12 08:59:17;;;;;;;9.82;5.57;;;871.10;1612.80;;;;;;5024606;28;20036;-79
2021/08/12 09:01:42;;;;;;;10.40;4.65;;;896.20;1587.20;;;;;;5036285;28;20068;-79
2021/08/12 09:04:08;;;;;;;8.57;4.43;;;896.50;1510.40;;;;;;5038008;28;20036;-79
2021/08/12 09:06:36;;;;;;;6.72;4.97;;;896.10;1510.40;;;;;;5025935;28;20044;-79
2021/08/12 09:09:01;;;;;;;5.75;4.60;;;896.30;1510.40;;;;;;5041332;28;20499;-79
2021/08/12 09:11:27;;;;;;;6.72;4.80;;;896.00;1536.00;;;;;;5032440;28;20037;-78
2021/08/12 09:13:53;;;;;;;5.90;4.50;;;896.10;1510.40;;;;;;5036166;28;20036;-79
2021/08/12 09:16:37;;;;;;;8.23;4.70;;;896.50;1484.80;;;;;;5036426;28;20056;-78
2021/08/12 09:19:25;;;;;;;7.30;4.45;;;921.70;1484.80;;;;;;5030828;28;20044;-78
2021/08/12 09:21:58;;;;;;;6.50;4.90;;;921.90;1433.60;;;;;;5032028;28;20495;-78
2021/08/12 09:24:24;;;;;;;7.18;4.43;;;921.60;1459.20;;;;;;5047322;28;20059;-79
2021/08/12 09:26:50;;;;;;;7.38;4.47;;;922.10;1408.00;;;;;;5046642;28;20054;-80
2021/08/12 09:29:30;;;;;;;6.82;4.78;;;922.40;1382.40;;;;;;5026583;28;20035;-79
2021/08/12 09:32:00;;;;;;;13.30;4.88;;;922.10;1356.80;;;;;;5031927;28;20057;-79
2021/08/12 09:34:43;;;;;;;6.57;4.60;;;896.90;1356.80;;;;;;5043254;28;20053;-78
2021/08/12 09:37:10;;;;;;;6.20;4.15;;;922.10;1356.80;;;;;;5030441;28;20025;-78
2021/08/12 09:39:37;;;;;;;5.65;4.07;;;922.30;1331.20;;;;;;5029789;28;20044;-78
2021/08/12 09:42:05;;;;;;;5.82;4.10;;;922.10;1305.60;;;;;;5032693;28;20456;-78
2021/08/12 09:44:49;;;;;;;10.48;4.00;;;922.30;1305.60;;;;;;5034228;28;20111;-78
2021/08/12 09:47:19;;;;;;;10.15;4.50;;;922.10;1305.60;;;;;;5044672;28;20030;-79
2021/08/12 09:49:47;;;;;;;5.28;4.28;;;922.50;1280.00;;;;;;5030015;28;20373;-78
2021/08/12 09:52:19;;;;;;;9.45;4.93;;;947.50;1254.40;;;;;;5031590;28;20039;-78
2021/08/12 09:54:45;;;;;;;6.43;3.70;;;922.50;1280.00;;;;;;5029772;28;20049;-78
2021/08/12 09:57:19;;;;;;;8.00;4.55;;;947.20;1254.40;;;;;;5035548;28;20050;-78
2021/08/12 09:59:49;;;;;;;5.45;4.28;;;947.20;1280.00;;;;;;5033646;28;20049;-78
2021/08/12 10:02:15;;;;;;;6.32;4.30;;;947.90;1228.80;;;;;;5040284;28;20022;-78
2021/08/12 10:04:41;;;;;;;5.38;4.22;;;948.00;1228.80;;;;;;5036439;28;20436;-78
2021/08/12 10:07:07;;;;;;;6.13;4.30;;;972.90;1228.80;;;;;;5034986;28;20037;-78
2021/08/12 10:09:42;;;;;;;7.38;4.32;;;973.40;1203.20;;;;;;5035407;28;20560;-78
2021/08/12 10:12:09;;;;;;;7.22;4.78;;;973.40;1203.20;;;;;;5036131;28;20041;-79
2021/08/12 10:14:35;;;;;;;8.40;5.05;;;973.50;1177.60;;;;;;5031541;28;20029;-78
2021/08/12 10:17:02;;;;;;;7.60;4.13;;;973.30;1203.20;;;;;;5030930;28;20032;-77
2021/08/12 10:19:29;;;;;;;9.80;4.60;;;973.30;1177.60;;;;;;5042708;28;20025;-78
2021/08/12 10:21:55;;;;;;;6.05;4.55;;;948.10;1177.60;;;;;;5030688;28;20026;-77
2021/08/12 10:24:25;;;;;;;6.97;3.88;;;973.30;1177.60;;;;;;5042008;28;20040;-77
2021/08/12 10:26:52;;;;;;;6.43;3.88;;;973.30;1177.60;;;;;;5029421;28;20025;-77
2021/08/12 10:29:22;;;;;;;5.60;4.30;;;973.40;1152.00;;;;;;5027410;28;20116;-78
2021/08/12 10:31:51;;;;;;;4.85;4.30;;;998.50;1177.60;;;;;;5026383;28;20033;-78
2021/08/12 10:34:18;;;;;;;6.60;5.00;;;998.40;1152.00;;;;;;5029596;28;20516;-77
2021/08/12 10:36:47;;;;;;;7.32;4.22;;;973.50;1126.40;;;;;;5045922;28;20087;-78
2021/08/12 10:39:14;;;;;;;6.65;4.03;;;973.20;1152.00;;;;;;5032323;28;20026;-78
2021/08/12 10:41:41;;;;;;;5.20;4.28;;;973.30;1126.40;;;;;;5031011;28;20021;-78
2021/08/12 10:44:07;;;;;;;7.30;4.35;;;998.40;1126.40;;;;;;5033727;28;20038;-78
2021/08/12 10:46:35;;;;;;;8.88;4.97;;;998.90;1126.40;;;;;;5037082;28;20026;-78
2021/08/12 10:49:25;;;;;;;8.65;4.70;;;999.10;1126.40;;;;;;5028213;28;20039;-78
2021/08/12 10:52:11;;;;;;;8.23;4.95;;;998.60;1152.00;;;;;;5032344;28;20051;-78
2021/08/12 10:54:40;;;;;;;8.20;5.00;;;999.00;1152.00;;;;;;5029302;28;20033;-78
2021/08/12 10:57:20;;;;;;;8.02;4.80;;;998.70;1152.00;;;;;;5043086;28;20101;-78
2021/08/12 10:59:47;;;;;;;7.28;4.95;;;998.50;1152.00;;;;;;5036936;28;20020;-78
2021/08/12 11:02:39;;;;;;;10.10;5.15;;;998.90;1152.00;;;;;;5030106;28;20238;-78
2021/08/12 11:05:05;;;;;;;5.85;4.78;;;1024.00;1126.40;;;;;;5029990;28;20040;-79
2021/08/12 11:07:43;;;;;;;4.97;4.13;;;999.10;1126.40;;;;;;5031113;28;20519;-78
2021/08/12 11:10:11;;;;;;;6.15;4.22;;;998.80;1126.40;;;;;;5031905;28;20472;-78
2021/08/12 11:13:07;;;;;;;5.88;4.38;;;999.00;1100.80;;;;;;5047814;28;20032;-78
2021/08/12 11:15:41;;;;;;;6.38;4.13;;;999.10;1100.80;;;;;;4986845;28;20070;-78
2021/08/12 11:18:13;;;;;;;5.90;4.30;;;999.20;1100.80;;;;;;4984974;28;20026;-78
2021/08/12 11:20:45;;;;;;;5.20;3.78;;;999.20;1024.00;;;;;;4981182;28;20117;-77
2021/08/12 11:23:19;;;;;;;7.22;4.20;;;999.10;1024.00;;;;;;4969579;28;20077;-77
2021/08/12 11:26:04;;;;;;;5.18;3.75;;;1024.00;1024.00;;;;;;4980319;28;20114;-78
2021/08/12 11:28:39;;;;;;;6.00;5.30;;;1024.30;1024.00;;;;;;4981465;28;20037;-78
2021/08/12 11:31:28;;;;;;;8.48;4.95;;;1024.10;1049.60;;;;;;4984285;28;20089;-78
2021/08/12 11:33:59;;;;;;;11.40;4.20;;;1024.00;1049.60;;;;;;4987318;28;20046;-79
2021/08/12 11:36:34;;;;;;;5.03;3.97;;;999.10;1024.00;;;;;;4991993;28;20054;-78
2021/08/12 11:39:04;;;;;;;6.45;4.53;;;998.90;1024.00;;;;;;4988120;28;20109;-78
2021/08/12 11:41:39;;;;;;;7.95;4.13;;;998.80;1075.20;;;;;;4967577;28;20049;-78
2021/08/12 11:44:16;;;;;;;7.18;4.18;;;999.10;1049.60;;;;;;4980701;28;20029;-78
2021/08/12 11:46:42;;;;;;;4.85;3.80;;;999.30;1024.00;;;;;;4984167;28;20567;-79
2021/08/12 11:49:13;;;;;;;6.20;3.80;;;1024.30;1024.00;;;;;;4987879;28;20038;-79
2021/08/12 11:51:39;;;;;;;8.23;4.55;;;1024.10;1024.00;;;;;;5005722;28;20504;-79
2021/08/12 11:54:04;;;;;;;7.22;3.97;;;998.60;1075.20;;;;;;5047882;28;20040;-79
2021/08/12 11:56:32;;;;;;;5.22;3.88;;;998.40;1049.60;;;;;;5044346;28;20024;-78
2021/08/12 11:59:01;;;;;;;6.68;4.78;;;998.80;1049.60;;;;;;5022788;28;20096;-78
2021/08/12 12:01:32;;;;;;;5.80;4.13;;;998.40;1049.60;;;;;;5027987;28;20026;-78
2021/08/12 12:04:02;;;;;;;6.60;5.13;;;998.70;1049.60;;;;;;5029016;28;20022;-77
2021/08/12 12:06:49;;;;;;;5.75;3.90;;;972.80;1075.20;;;;;;5026142;28;20036;-78
2021/08/12 12:09:30;;;;;;;6.53;4.13;;;973.60;1049.60;;;;;;5032642;28;20029;-78
2021/08/12 12:12:02;;;;;;;12.18;4.47;;;998.80;1049.60;;;;;;5043297;28;20037;-78
2021/08/12 12:14:30;;;;;;;8.05;4.07;;;1024.20;1024.00;;;;;;5037550;28;20021;-78
2021/08/12 12:17:10;;;;;;;8.07;4.32;;;1024.80;998.40;;;;;;5030384;28;20026;-78
2021/08/12 12:19:57;;;;;;;5.93;4.13;;;1050.10;1024.00;;;;;;5048143;28;20021;-77
2021/08/12 12:22:23;;;;;;;8.88;4.20;;;1050.10;972.80;;;;;;5034695;28;20029;-76